createdAt,value
2018-06-22T00:02:41.304Z,3.90
2018-06-22T00:07:25.664Z,1.77
2018-06-22T00:12:10.004Z,1.17
2018-06-22T00:16:54.512Z,3.93
2018-06-22T00:21:38.855Z,1.13
2018-06-22T00:26:23.133Z,2.60
2018-06-22T00:31:07.509Z,3.63
2018-06-22T00:35:51.921Z,4.37
2018-06-22T00:40:36.316Z,1.37
2018-06-22T00:45:20.848Z,3.73
2018-06-22T00:50:05.177Z,3.60
2018-06-22T00:54:49.544Z,3.00
2018-06-22T00:59:33.917Z,5.67
2018-06-22T01:04:18.273Z,2.90
2018-06-22T01:09:02.650Z,2.60
2018-06-22T01:13:47.013Z,2.13
2018-06-22T01:18:31.427Z,2.60
2018-06-22T01:23:15.820Z,3.47
2018-06-22T01:28:00.135Z,1.60
2018-06-22T01:32:44.420Z,1.80
2018-06-22T01:37:29.008Z,1.60
2018-06-22T01:42:13.421Z,1.73
2018-06-22T01:46:57.801Z,4.13
2018-06-22T01:51:42.292Z,4.43
2018-06-22T01:56:26.644Z,4.17
2018-06-22T02:01:11.014Z,2.87
2018-06-22T02:05:55.405Z,1.47
2018-06-22T02:10:39.762Z,2.30
2018-06-22T02:15:24.172Z,2.80
2018-06-22T02:20:08.618Z,2.53
2018-06-22T02:24:52.642Z,2.50
2018-06-22T02:29:36.866Z,3.40
2018-06-22T02:34:21.187Z,2.30
2018-06-22T02:39:08.424Z,2.10
2018-06-22T02:43:52.803Z,2.20
2018-06-22T02:48:37.179Z,4.00
2018-06-22T02:53:21.607Z,2.70
2018-06-22T02:58:06.025Z,3.43
2018-06-22T03:02:50.471Z,2.73
2018-06-22T03:07:34.884Z,2.33
2018-06-22T03:12:19.268Z,2.53
2018-06-22T03:17:03.602Z,2.53
2018-06-22T03:21:47.945Z,1.87
2018-06-22T03:26:32.292Z,1.97
2018-06-22T03:31:16.881Z,2.93
2018-06-22T03:36:01.222Z,5.33
2018-06-22T03:40:45.573Z,1.70
2018-06-22T03:45:29.903Z,3.30
2018-06-22T03:50:14.352Z,2.40
2018-06-22T03:54:58.748Z,1.13
2018-06-22T03:59:43.176Z,1.93
2018-06-22T04:04:27.564Z,3.80
2018-06-22T04:09:11.992Z,1.80
2018-06-22T04:13:56.527Z,1.33
2018-06-22T04:18:40.884Z,2.73
2018-06-22T04:23:25.383Z,3.07
2018-06-22T04:28:09.715Z,4.53
2018-06-22T04:32:54.038Z,5.70
2018-06-22T04:37:38.831Z,4.57
2018-06-22T04:42:23.743Z,3.07
2018-06-22T04:47:08.297Z,6.00
2018-06-22T04:51:52.794Z,2.57
2018-06-22T04:56:37.393Z,4.43
2018-06-22T05:01:22.084Z,3.13
2018-06-22T05:06:06.622Z,3.30
2018-06-22T05:10:51.088Z,6.03
2018-06-22T05:15:35.601Z,6.67
2018-06-22T05:20:20.201Z,4.05
2018-06-22T05:25:04.680Z,5.80
2018-06-22T05:29:49.126Z,6.33
2018-06-22T05:34:33.553Z,8.30
2018-06-22T05:39:18.962Z,5.70
2018-06-22T05:44:03.391Z,4.27
2018-06-22T05:48:48.442Z,2.53
2018-06-22T05:53:32.561Z,3.93
2018-06-22T05:58:16.796Z,3.90
2018-06-22T06:03:01.385Z,2.60
2018-06-22T06:07:45.769Z,4.20
2018-06-22T06:12:30.250Z,2.47
2018-06-22T06:17:14.788Z,4.17
2018-06-22T06:21:59.227Z,4.77
2018-06-22T06:26:43.653Z,3.73
2018-06-22T06:31:28.349Z,5.43
2018-06-22T06:36:14.946Z,4.13
2018-06-22T06:40:59.587Z,3.20
2018-06-22T06:45:44.086Z,7.33
2018-06-22T06:50:28.470Z,4.03
2018-06-22T06:55:12.809Z,5.67
2018-06-22T06:59:57.085Z,4.33
2018-06-22T07:04:41.551Z,4.87
2018-06-22T07:09:26.171Z,2.83
2018-06-22T07:14:10.612Z,3.17
2018-06-22T07:18:55.071Z,3.57
2018-06-22T07:23:39.457Z,2.27
2018-06-22T07:28:23.809Z,2.03
2018-06-22T07:33:08.219Z,5.10
2018-06-22T07:37:52.683Z,5.17
2018-06-22T07:42:37.078Z,3.27
2018-06-22T07:47:21.500Z,3.67
2018-06-22T07:52:05.842Z,3.50
2018-06-22T07:56:50.310Z,3.70
2018-06-22T08:01:34.651Z,3.33
2018-06-22T08:06:19.073Z,6.27
2018-06-22T08:11:03.431Z,9.50
2018-06-22T08:15:47.948Z,3.23
2018-06-22T08:20:32.306Z,4.60
2018-06-22T08:25:16.826Z,3.63
2018-06-22T08:30:01.286Z,4.90
2018-06-22T08:34:45.912Z,3.60
2018-06-22T08:39:30.376Z,4.00
2018-06-22T08:44:14.783Z,4.03
2018-06-22T08:48:59.277Z,4.40
2018-06-22T08:53:43.654Z,4.00
2018-06-22T08:58:28.130Z,2.93
2018-06-22T09:03:12.524Z,5.93
2018-06-22T09:07:56.859Z,3.37
2018-06-22T09:12:41.187Z,2.03
2018-06-22T09:17:25.542Z,2.37
2018-06-22T09:22:09.870Z,3.57
2018-06-22T09:26:54.288Z,2.73
2018-06-22T09:31:38.745Z,2.40
2018-06-22T09:36:23.097Z,7.57
2018-06-22T09:41:07.426Z,2.20
2018-06-22T09:45:51.774Z,4.53
2018-06-22T09:50:36.325Z,4.90
2018-06-22T09:55:20.681Z,2.17
2018-06-22T10:00:05.129Z,2.47
2018-06-22T10:04:49.913Z,1.43
2018-06-22T10:09:34.317Z,4.07
2018-06-22T10:14:18.782Z,3.47
2018-06-22T10:19:03.306Z,3.20
2018-06-22T10:23:47.685Z,2.97
2018-06-22T10:28:32.091Z,4.97
2018-06-22T10:33:17.063Z,4.30
2018-06-22T10:38:01.574Z,2.33
2018-06-22T10:42:46.035Z,1.87
2018-06-22T10:47:30.441Z,2.20
2018-06-22T10:52:14.855Z,1.37
2018-06-22T10:56:59.569Z,1.73
2018-06-22T11:01:43.726Z,1.67
2018-06-22T11:06:28.815Z,2.40
2018-06-22T11:11:13.250Z,2.40
2018-06-22T11:15:57.570Z,1.83
2018-06-22T11:20:42.001Z,1.90
2018-06-22T11:25:26.383Z,1.00
2018-06-22T11:30:30.314Z,1.93
2018-06-22T11:35:15.861Z,2.10
2018-06-22T11:40:00.222Z,1.00
2018-06-22T11:44:44.896Z,1.50
2018-06-22T11:49:29.379Z,0.80
2018-06-22T11:54:13.848Z,1.47
2018-06-22T11:58:58.324Z,1.27
2018-06-22T12:03:43.136Z,0.40
2018-06-22T12:08:27.745Z,0.63
2018-06-22T12:13:12.194Z,1.17
2018-06-22T12:17:56.684Z,0.83
2018-06-22T12:22:41.277Z,0.90
2018-06-22T12:27:25.999Z,1.07
2018-06-22T12:32:12.560Z,1.20
2018-06-22T12:36:59.799Z,2.10
2018-06-22T12:41:51.804Z,1.20
2018-06-22T12:46:36.547Z,2.90
2018-06-22T12:51:21.183Z,2.80
2018-06-22T12:56:06.112Z,1.50
2018-06-22T13:00:50.555Z,1.33
2018-06-22T13:05:34.934Z,1.77
2018-06-22T13:10:19.384Z,0.90
2018-06-22T13:15:04.981Z,1.20
2018-06-22T13:19:49.476Z,2.70
2018-06-22T13:24:33.960Z,1.40
2018-06-22T13:29:18.734Z,1.40
2018-06-22T13:34:03.151Z,1.03
2018-06-22T13:38:47.533Z,1.63
2018-06-22T13:43:32.054Z,0.80
2018-06-22T13:48:16.500Z,0.83
2018-06-22T13:53:01.044Z,0.70
2018-06-22T13:57:45.540Z,0.67
2018-06-22T14:02:31.027Z,1.90
2018-06-22T14:07:15.503Z,0.60
2018-06-22T14:12:00.050Z,0.90
2018-06-22T14:16:44.455Z,1.03
2018-06-22T14:21:28.879Z,1.07
2018-06-22T14:26:13.676Z,0.83
2018-06-22T14:30:58.195Z,0.53
2018-06-22T14:35:42.525Z,1.03
2018-06-22T14:40:26.639Z,2.20
2018-06-22T14:45:10.939Z,1.27
2018-06-22T14:49:56.424Z,0.60
2018-06-22T14:54:46.054Z,0.60
2018-06-22T15:01:40.915Z,1.10
2018-06-22T15:06:30.831Z,0.60
2018-06-22T15:11:15.440Z,0.70
2018-06-22T15:16:01.140Z,2.00
2018-06-22T15:20:52.108Z,1.87
2018-06-22T15:25:37.481Z,1.07
2018-06-22T15:30:21.913Z,1.57
2018-06-22T15:37:14.926Z,1.03
2018-06-22T15:42:04.506Z,1.17
2018-06-22T15:46:54.194Z,1.87
2018-06-22T15:51:43.909Z,0.50
2018-06-22T15:56:28.347Z,0.60
2018-06-22T16:01:12.852Z,0.30
2018-06-22T16:05:57.336Z,0.40
2018-06-22T16:10:41.859Z,0.40
2018-06-22T16:15:31.572Z,1.23
2018-06-22T16:20:21.055Z,1.30
2018-06-22T16:25:10.577Z,0.93
2018-06-22T16:29:55.085Z,0.40
2018-06-22T16:34:39.594Z,0.90
2018-06-22T16:39:24.012Z,0.63
2018-06-22T16:44:08.576Z,1.83
2018-06-22T16:48:53.017Z,1.17
2018-06-22T16:53:37.437Z,1.07
2018-06-22T16:58:27.030Z,1.50
2018-06-22T17:03:11.667Z,0.83
2018-06-22T17:10:09.140Z,0.80
2018-06-22T17:14:58.695Z,0.97
2018-06-22T17:19:43.702Z,1.30
2018-06-22T17:24:29.300Z,3.63
2018-06-22T17:29:14.224Z,1.07
2018-06-22T17:33:59.032Z,1.50
2018-06-22T17:38:44.642Z,5.00
2018-06-22T17:43:29.376Z,0.77
2018-06-22T17:48:25.254Z,0.70
2018-06-22T17:53:09.723Z,1.43
2018-06-22T17:57:54.171Z,0.83
2018-06-22T18:02:43.862Z,1.80
2018-06-22T18:07:33.441Z,1.33
2018-06-22T18:12:23.144Z,2.93
2018-06-22T18:17:07.638Z,1.47
2018-06-22T18:21:51.879Z,1.00
2018-06-22T18:26:40.350Z,5.10
2018-06-22T18:31:25.157Z,1.83
2018-06-22T18:36:10.268Z,2.73
2018-06-22T18:40:55.728Z,2.10
2018-06-22T18:45:43.204Z,1.67
2018-06-22T18:50:28.119Z,2.77
2018-06-22T18:55:21.282Z,1.90
2018-06-22T19:00:12.071Z,2.87
2018-06-22T19:04:58.520Z,3.07
2018-06-22T19:09:43.189Z,2.10
2018-06-22T19:14:28.210Z,1.70
2018-06-22T19:19:17.913Z,1.93
2018-06-22T19:24:02.804Z,2.20
2018-06-22T19:29:03.224Z,3.03
2018-06-22T19:33:47.877Z,2.40
2018-06-22T19:38:32.477Z,1.97
2018-06-22T19:43:26.880Z,3.53
2018-06-22T19:48:18.557Z,3.67
2018-06-22T19:53:08.398Z,2.63
2018-06-22T19:57:52.870Z,2.40
2018-06-22T20:02:37.426Z,2.40
2018-06-22T20:07:22.414Z,3.37
2018-06-22T20:12:08.096Z,3.27
2018-06-22T20:16:52.879Z,2.33
2018-06-22T20:26:35.715Z,4.17
2018-06-22T20:31:25.392Z,3.20
2018-06-22T20:36:15.255Z,2.13
2018-06-22T20:41:05.137Z,4.60
2018-06-22T20:45:57.455Z,1.50
2018-06-22T20:50:42.308Z,3.00
2018-06-22T20:55:27.125Z,4.43
2018-06-22T21:00:11.765Z,5.63
2018-06-22T21:04:56.602Z,2.40
2018-06-22T21:09:41.193Z,4.47
2018-06-22T21:14:25.894Z,5.20
2018-06-22T21:19:10.558Z,5.03
2018-06-22T21:23:55.435Z,7.77
2018-06-22T21:28:45.232Z,4.03
2018-06-22T21:33:35.071Z,4.83
2018-06-22T21:38:24.946Z,4.23
2018-06-22T21:43:09.590Z,4.43
2018-06-22T21:47:54.236Z,4.40
2018-06-22T21:52:38.889Z,4.83
2018-06-22T21:57:23.558Z,5.07
2018-06-22T22:02:08.369Z,5.53
2018-06-22T22:06:53.095Z,4.67
2018-06-22T22:11:43.366Z,7.57
2018-06-22T22:16:28.045Z,4.47
2018-06-22T22:21:12.499Z,6.50
2018-06-22T22:25:57.127Z,4.83
2018-06-22T22:30:41.984Z,6.77
2018-06-22T22:35:26.549Z,7.93
2018-06-22T22:40:11.087Z,10.07
2018-06-22T22:44:55.716Z,10.43
2018-06-22T22:49:40.146Z,6.93
2018-06-22T22:54:24.572Z,6.17
2018-06-22T22:59:09.042Z,6.60
2018-06-22T23:03:53.443Z,4.90
2018-06-22T23:08:37.942Z,8.63
2018-06-22T23:13:22.641Z,8.57
2018-06-22T23:18:07.178Z,7.30
2018-06-22T23:23:02.577Z,5.67
2018-06-22T23:27:47.103Z,8.33
2018-06-22T23:32:32.618Z,4.57
2018-06-22T23:37:17.101Z,6.97
2018-06-22T23:42:01.655Z,11.77
2018-06-22T23:46:46.544Z,5.83
2018-06-22T23:51:31.383Z,9.10
2018-06-22T23:56:16.152Z,9.93
